Allen, South Dakota
Current Conditions -  °F | °C
As of 3:52 AM on Thursday 27 Nov 2014 (Local Time) from KIEN Reporting Station
Overcast Overcast  
Wind Chill: -6°   Ceiling: 9500
Heat Index: -2°   Visibility: 10mi
Dew Point: -4°   Wind: 8mph
Humidity: 82%   Direction: 200°SSW
Pressure: 30.19"   Gusts: NA
Location:  43.28°N, 101.93°W
Report Text: KIEN 271052Z AUTO 20007KT 10SM OVC095 M02/M04 A3019 RMK AO2 SLP252 T10171044
Loading
Personal Weather Stations






























Interactive Weather Map New forecast layout! Learn more

10-Day Weather Forecast

Advertisements
Track Severe Weather on mobile